Terminal Aerodrome Forecast
Issued by NWS

Home | Current Version | Previous Version | Graphics & Text | Print | Product List | Glossary On
Versions: 1 2 3 4 5 6 7 8 9 10 11 12 13 14 15 16 17
000
FTUS42 KMHX 132351
TAFISO
TAF
KISO 132351Z 1400/1424 36008KT P6SM BKN025
     FM140130 36008KT P6SM BKN015
     FM140300 36006KT P6SM OVC009
     FM140600 36007KT 3SM BR OVC007
     FM140900 36006KT 3SM BR BKN004
     FM141400 36006KT P6SM BKN015
     FM142000 00000KT P6SM BKN030
      AMD LTD TO CLD VIS AND WIND=

USA.gov is the U.S. government's official web portal to all federal, state and local government web resources and services.